Time;durP1;ratioP1;P1;durP2;ratioP2;P2;SDS_P1;SDS_P2;PMS_P1;PMS_P2;Temp;Humidity;BMP_temperature;BMP_pressure;BME280_temperature;BME280_humidity;BME280_pressure;Samples;Min_cycle;Max_cycle;Signal;HPM_P1;HPM_P2
2023/05/26 00:01:59;;;;;;;37.22;8.07;;;9.40;81.40;;;;;;5036997;28;20021;-47
2023/05/26 00:04:26;;;;;;;24.25;5.50;;;9.40;81.60;;;;;;5054617;28;20112;-44
2023/05/26 00:06:54;;;;;;;23.23;6.10;;;9.40;81.80;;;;;;5047152;28;20025;-45
2023/05/26 00:09:21;;;;;;;27.98;6.43;;;9.40;81.50;;;;;;5054003;28;20045;-48
2023/05/26 00:15:10;;;;;;;31.40;6.53;;;9.50;80.90;;;;;;5036568;28;20451;-44
2023/05/26 00:17:38;;;;;;;19.63;6.15;;;9.40;80.80;;;;;;5040077;28;20100;-45
2023/05/26 00:20:07;;;;;;;19.35;5.25;;;9.40;80.60;;;;;;5050694;28;20021;-47
2023/05/26 00:22:34;;;;;;;24.20;6.45;;;9.40;80.50;;;;;;5046845;28;20060;-46
2023/05/26 00:25:04;;;;;;;27.13;5.03;;;9.40;80.30;;;;;;5054473;28;20059;-45
2023/05/26 00:27:31;;;;;;;30.77;9.25;;;9.40;80.70;;;;;;5049207;28;20065;-45
2023/05/26 00:29:58;;;;;;;20.25;6.15;;;9.40;80.70;;;;;;5034450;28;20040;-47
2023/05/26 00:32:27;;;;;;;25.52;6.70;;;9.40;81.20;;;;;;5045393;28;20071;-45
2023/05/26 00:34:53;;;;;;;27.40;6.87;;;9.40;81.00;;;;;;5054150;28;20113;-46
2023/05/26 00:37:21;;;;;;;22.45;6.05;;;9.30;81.40;;;;;;5053617;28;20385;-46
2023/05/26 00:39:52;;;;;;;21.95;7.28;;;9.30;81.60;;;;;;5039933;28;20026;-44
2023/05/26 00:42:22;;;;;;;25.55;6.93;;;9.30;81.60;;;;;;5035641;28;20435;-45
2023/05/26 00:44:51;;;;;;;28.63;6.95;;;9.20;81.80;;;;;;5036143;28;20032;-44
2023/05/26 00:47:18;;;;;;;33.70;6.07;;;9.20;81.90;;;;;;5030405;28;20044;-46
2023/05/26 00:49:45;;;;;;;25.80;6.93;;;9.20;82.00;;;;;;5015941;28;20866;-44
2023/05/26 00:52:12;;;;;;;28.88;7.85;;;9.10;82.30;;;;;;5038948;28;20033;-44
2023/05/26 00:54:39;;;;;;;25.27;6.88;;;9.20;82.40;;;;;;5053895;28;20451;-47
2023/05/26 00:57:07;;;;;;;34.33;10.07;;;9.20;82.10;;;;;;5036780;28;20037;-46
2023/05/26 00:59:34;;;;;;;27.85;5.90;;;9.20;82.10;;;;;;5033998;28;20014;-46
2023/05/26 01:02:01;;;;;;;22.58;6.22;;;9.20;82.00;;;;;;5045738;28;20433;-47
2023/05/26 01:04:29;;;;;;;26.25;7.25;;;9.20;81.90;;;;;;5052882;28;20036;-45
2023/05/26 01:07:02;;;;;;;20.52;6.07;;;9.20;81.60;;;;;;5068058;28;20913;-44
2023/05/26 01:09:29;;;;;;;22.08;5.88;;;9.20;82.00;;;;;;5070496;28;20031;-45
2023/05/26 01:12:08;;;;;;;25.00;6.55;;;9.20;82.00;;;;;;5040185;28;20036;-44
2023/05/26 01:14:54;;;;;;;32.23;7.60;;;9.10;81.80;;;;;;5070008;28;20115;-44
2023/05/26 01:17:39;;;;;;;35.47;8.38;;;9.10;82.10;;;;;;5052541;28;20099;-45
2023/05/26 01:20:28;;;;;;;24.45;7.72;;;9.10;82.30;;;;;;5039386;28;20033;-46
2023/05/26 01:23:41;;;;;;;24.50;6.85;;;9.20;82.00;;;;;;5051469;28;20029;-45
2023/05/26 01:26:30;;;;;;;30.50;5.85;;;9.30;82.00;;;;;;5002314;28;20065;-44
2023/05/26 01:29:04;;;;;;;27.13;7.50;;;9.40;82.00;;;;;;5049814;28;20399;-47
2023/05/26 01:31:33;;;;;;;33.03;6.35;;;9.40;81.80;;;;;;5051289;28;20025;-45
2023/05/26 01:34:01;;;;;;;31.02;7.75;;;9.30;81.50;;;;;;5050187;28;20447;-44
2023/05/26 01:36:29;;;;;;;19.95;5.50;;;9.30;81.50;;;;;;5049761;28;20075;-45
2023/05/26 01:38:56;;;;;;;26.35;6.15;;;9.30;81.80;;;;;;5063911;28;20521;-44
2023/05/26 01:41:44;;;;;;;20.33;6.13;;;9.40;82.00;;;;;;5038494;28;20128;-44
2023/05/26 01:44:14;;;;;;;25.20;6.18;;;9.40;81.80;;;;;;5028802;28;20033;-45
2023/05/26 01:46:51;;;;;;;21.45;5.63;;;9.40;81.30;;;;;;5045806;28;20453;-45
2023/05/26 01:49:27;;;;;;;30.27;6.30;;;9.30;81.00;;;;;;5050183;28;20034;-45
2023/05/26 01:52:01;;;;;;;21.08;5.60;;;9.40;81.10;;;;;;5049544;28;20482;-43
2023/05/26 01:54:34;;;;;;;27.15;6.05;;;9.40;81.10;;;;;;5069727;28;20029;-44
2023/05/26 01:57:03;;;;;;;26.98;6.75;;;9.40;81.30;;;;;;5030399;28;20459;-44
2023/05/26 01:59:34;;;;;;;22.00;5.83;;;9.40;81.40;;;;;;5028994;28;20065;-46
2023/05/26 02:02:01;;;;;;;24.48;5.82;;;9.40;81.30;;;;;;5048158;28;20316;-45
2023/05/26 02:04:28;;;;;;;24.02;6.22;;;9.40;80.90;;;;;;5045450;28;20034;-46
2023/05/26 02:06:55;;;;;;;25.77;7.28;;;9.40;80.50;;;;;;5032084;28;20056;-44
2023/05/26 02:09:21;;;;;;;25.27;5.72;;;9.30;80.40;;;;;;5049440;28;20435;-44
2023/05/26 02:11:50;;;;;;;20.50;6.13;;;9.30;80.30;;;;;;5059325;28;20021;-44
2023/05/26 02:14:17;;;;;;;26.17;5.50;;;9.40;80.40;;;;;;5051477;28;20021;-43
2023/05/26 02:16:47;;;;;;;17.80;6.90;;;9.40;80.50;;;;;;5051104;28;20032;-46
2023/05/26 02:19:13;;;;;;;16.42;4.85;;;9.40;80.50;;;;;;5052457;28;20037;-46
2023/05/26 02:21:40;;;;;;;30.38;6.53;;;9.40;80.50;;;;;;5051227;28;20025;-47
2023/05/26 02:24:11;;;;;;;23.15;7.95;;;9.40;80.50;;;;;;5050374;28;20029;-47
2023/05/26 02:26:38;;;;;;;27.65;7.10;;;9.40;80.20;;;;;;5049704;28;20350;-44
2023/05/26 02:29:04;;;;;;;26.80;7.00;;;9.30;80.40;;;;;;5035496;28;20022;-45
2023/05/26 02:31:39;;;;;;;22.02;5.45;;;9.30;80.60;;;;;;5043613;28;20036;-44
2023/05/26 02:34:06;;;;;;;22.55;6.88;;;9.30;80.70;;;;;;5053497;28;20053;-48
2023/05/26 02:36:33;;;;;;;22.80;6.03;;;9.20;80.70;;;;;;5039042;28;20355;-44
2023/05/26 02:39:00;;;;;;;24.08;5.63;;;9.20;81.20;;;;;;5031142;28;20037;-46
2023/05/26 02:41:27;;;;;;;25.33;6.32;;;9.20;81.40;;;;;;5033774;28;20039;-44
2023/05/26 02:43:54;;;;;;;32.42;6.78;;;9.10;81.80;;;;;;5037718;28;20068;-47
2023/05/26 02:46:20;;;;;;;23.52;7.95;;;9.10;81.70;;;;;;5052075;28;20043;-44
2023/05/26 02:48:46;;;;;;;31.23;7.53;;;9.10;81.70;;;;;;5053846;28;20017;-44
2023/05/26 02:51:13;;;;;;;26.27;6.85;;;9.10;81.50;;;;;;5055138;28;20029;-45
2023/05/26 02:53:40;;;;;;;23.35;5.32;;;9.20;81.80;;;;;;5033034;28;20115;-48
2023/05/26 02:56:12;;;;;;;33.00;6.60;;;9.20;81.70;;;;;;5054972;28;20024;-45
2023/05/26 02:58:39;;;;;;;25.13;6.38;;;9.20;81.80;;;;;;5050224;28;20104;-43
2023/05/26 03:01:06;;;;;;;25.02;6.05;;;9.10;81.60;;;;;;5061806;28;20491;-45
2023/05/26 03:03:34;;;;;;;32.97;7.32;;;9.10;81.60;;;;;;5042793;28;20065;-45
2023/05/26 03:06:02;;;;;;;21.70;5.72;;;9.20;81.70;;;;;;5053781;28;20044;-44
2023/05/26 03:08:29;;;;;;;25.00;5.90;;;9.20;81.50;;;;;;5043656;28;20076;-47
2023/05/26 03:10:59;;;;;;;29.65;7.97;;;9.30;81.00;;;;;;5053790;28;20443;-47
2023/05/26 03:13:26;;;;;;;24.17;6.38;;;9.30;81.00;;;;;;5046226;28;20036;-47
2023/05/26 03:15:53;;;;;;;36.17;7.85;;;9.40;81.00;;;;;;5040888;28;20033;-47
2023/05/26 03:18:20;;;;;;;30.65;6.60;;;9.40;81.30;;;;;;5054647;28;20454;-46
2023/05/26 03:20:46;;;;;;;27.70;6.85;;;9.40;81.00;;;;;;5045916;28;20040;-44
2023/05/26 03:23:17;;;;;;;26.00;6.50;;;9.30;80.80;;;;;;5023294;28;20119;-47
2023/05/26 03:25:47;;;;;;;24.83;6.20;;;9.30;80.80;;;;;;5054354;28;20639;-44
2023/05/26 03:28:13;;;;;;;;;;;9.30;80.90;;;;;;5044938;28;20030;-44
2023/05/26 03:30:40;;;;;;;30.65;6.18;;;9.30;80.90;;;;;;5035703;28;19995;-44
2023/05/26 03:33:07;;;;;;;27.88;5.22;;;9.20;80.90;;;;;;5054066;28;20104;-45
2023/05/26 03:35:35;;;;;;;28.50;6.22;;;9.20;80.40;;;;;;5041352;28;20036;-43
2023/05/26 03:38:02;;;;;;;22.83;7.45;;;9.30;80.40;;;;;;5013387;28;20030;-46
2023/05/26 03:40:31;;;;;;;24.48;5.65;;;9.40;81.00;;;;;;5019163;28;20115;-45
2023/05/26 03:42:57;;;;;;;22.85;6.85;;;9.40;81.00;;;;;;5054099;28;20029;-44
2023/05/26 03:45:23;;;;;;;27.88;7.78;;;9.40;80.40;;;;;;5042651;28;20042;-44
2023/05/26 03:47:50;;;;;;;28.13;6.18;;;9.40;80.00;;;;;;5054080;28;20035;-45
2023/05/26 03:50:17;;;;;;;29.35;6.05;;;9.40;80.10;;;;;;5027711;28;20057;-45
2023/05/26 03:52:44;;;;;;;27.85;7.45;;;9.40;80.30;;;;;;5051997;28;20024;-45
2023/05/26 03:55:11;;;;;;;25.10;6.22;;;9.50;80.60;;;;;;5046953;28;20136;-44
2023/05/26 03:57:41;;;;;;;26.10;6.05;;;9.50;80.80;;;;;;5039333;28;20029;-46
2023/05/26 04:00:10;;;;;;;27.10;5.80;;;9.60;80.80;;;;;;5013937;28;20461;-49
2023/05/26 04:02:36;;;;;;;24.38;5.80;;;9.60;80.40;;;;;;5042054;28;20026;-45
2023/05/26 04:05:02;;;;;;;32.05;7.95;;;9.60;79.20;;;;;;5028803;28;20054;-44
2023/05/26 04:07:30;;;;;;;33.65;5.82;;;9.60;78.90;;;;;;5013984;28;20448;-49
2023/05/26 04:09:57;;;;;;;23.52;6.03;;;9.70;79.40;;;;;;5034833;28;20026;-45
2023/05/26 04:12:23;;;;;;;26.55;7.50;;;9.70;79.40;;;;;;5013797;28;20021;-45
2023/05/26 04:14:50;;;;;;;35.08;6.38;;;9.80;79.70;;;;;;5014030;28;20026;-45
2023/05/26 04:17:17;;;;;;;31.90;5.88;;;9.80;79.60;;;;;;5036454;28;20040;-45
2023/05/26 04:19:44;;;;;;;27.75;5.60;;;9.90;79.50;;;;;;5049912;28;20056;-45
2023/05/26 04:22:11;;;;;;;26.17;5.88;;;9.90;79.50;;;;;;5044034;28;20032;-45
2023/05/26 04:24:37;;;;;;;24.52;6.55;;;9.90;79.10;;;;;;5047360;28;20021;-45
2023/05/26 04:27:07;;;;;;;33.83;8.98;;;9.90;78.30;;;;;;5053242;28;20033;-45
2023/05/26 04:29:34;;;;;;;18.67;5.00;;;9.90;78.40;;;;;;5051506;28;20095;-45
2023/05/26 04:32:01;;;;;;;15.23;5.63;;;9.90;78.60;;;;;;5039867;28;20032;-45
2023/05/26 04:34:28;;;;;;;19.27;5.20;;;9.90;78.30;;;;;;5051200;28;20499;-45
2023/05/26 04:36:55;;;;;;;28.08;6.45;;;9.90;77.90;;;;;;5049383;28;20048;-45
2023/05/26 04:39:22;;;;;;;17.58;5.30;;;10.00;77.70;;;;;;5050316;28;20043;-45
2023/05/26 04:41:50;;;;;;;26.45;5.57;;;10.00;77.60;;;;;;5050987;28;20446;-44
2023/05/26 04:44:18;;;;;;;25.83;5.72;;;10.00;77.70;;;;;;5052045;28;20098;-45
2023/05/26 04:46:45;;;;;;;25.33;7.28;;;10.10;77.20;;;;;;5025263;28;20029;-44
2023/05/26 04:49:12;;;;;;;25.90;7.18;;;10.10;77.40;;;;;;5012410;28;20428;-45
2023/05/26 04:51:39;;;;;;;26.55;5.55;;;10.10;77.20;;;;;;5015450;28;20061;-45
2023/05/26 04:54:06;;;;;;;22.27;6.30;;;10.20;77.10;;;;;;5021835;28;20025;-45
2023/05/26 04:56:33;;;;;;;24.35;5.80;;;10.10;77.20;;;;;;5053313;28;20391;-45
2023/05/26 04:59:00;;;;;;;22.45;5.57;;;10.20;76.80;;;;;;5028192;28;20065;-45
2023/05/26 05:01:26;;;;;;;25.60;5.05;;;10.20;77.10;;;;;;5030795;28;20026;-45
2023/05/26 05:03:52;;;;;;;20.02;5.40;;;10.30;77.10;;;;;;5052940;28;20462;-45
2023/05/26 05:06:19;;;;;;;20.17;5.18;;;10.20;76.80;;;;;;5035038;28;20054;-45
2023/05/26 05:08:46;;;;;;;22.45;5.10;;;10.20;76.10;;;;;;5032038;28;20018;-45
2023/05/26 05:11:12;;;;;;;26.10;7.38;;;10.30;76.30;;;;;;5019836;28;20033;-45
2023/05/26 05:13:41;;;;;;;20.40;4.72;;;10.30;76.20;;;;;;5051536;28;20104;-45
2023/05/26 05:16:07;;;;;;;17.48;4.82;;;10.30;75.80;;;;;;5036722;28;20053;-45
2023/05/26 05:18:34;;;;;;;18.13;6.50;;;10.40;75.40;;;;;;5031656;28;20063;-44
2023/05/26 05:21:00;;;;;;;21.27;5.93;;;10.40;75.30;;;;;;5032199;28;20021;-45
2023/05/26 05:23:34;;;;;;;15.98;4.78;;;10.40;75.70;;;;;;5031413;28;20033;-45
2023/05/26 05:26:01;;;;;;;23.80;8.25;;;10.40;75.60;;;;;;5030445;28;20029;-48
2023/05/26 05:28:29;;;;;;;17.52;4.25;;;10.40;75.10;;;;;;5029298;28;20018;-45
2023/05/26 05:30:56;;;;;;;17.70;5.10;;;10.50;75.30;;;;;;5030610;28;20105;-45
2023/05/26 05:33:23;;;;;;;19.85;5.20;;;10.60;75.40;;;;;;5031297;28;20021;-45
2023/05/26 05:35:50;;;;;;;20.42;5.72;;;10.60;74.90;;;;;;5033471;28;20036;-45
2023/05/26 05:38:17;;;;;;;29.95;6.38;;;10.70;75.60;;;;;;5029372;28;20476;-45
2023/05/26 05:40:44;;;;;;;23.67;5.80;;;10.80;75.60;;;;;;5031753;28;20108;-45
2023/05/26 05:43:11;;;;;;;21.17;6.28;;;10.80;75.60;;;;;;5031555;28;20423;-45
2023/05/26 05:45:38;;;;;;;20.35;5.35;;;10.90;75.70;;;;;;5032814;28;20018;-45
2023/05/26 05:48:05;;;;;;;18.95;6.18;;;10.90;75.40;;;;;;5035055;28;20026;-48
2023/05/26 05:50:32;;;;;;;23.05;6.50;;;10.90;75.30;;;;;;5030244;28;20049;-46
2023/05/26 05:52:59;;;;;;;14.65;5.40;;;10.90;75.00;;;;;;5033488;28;20026;-45
2023/05/26 05:55:25;;;;;;;19.17;5.63;;;10.90;75.00;;;;;;5037376;28;20092;-44
2023/05/26 05:57:55;;;;;;;23.45;7.70;;;11.00;74.70;;;;;;5035761;28;20103;-45
2023/05/26 06:00:22;;;;;;;73.05;44.30;;;11.00;74.40;;;;;;5041962;28;20034;-45
2023/05/26 06:02:52;;;;;;;21.08;6.57;;;10.90;73.90;;;;;;5053125;28;20070;-45
2023/05/26 06:05:19;;;;;;;23.77;6.13;;;10.90;73.20;;;;;;5053378;28;20099;-44
2023/05/26 06:07:45;;;;;;;18.83;6.30;;;11.00;73.80;;;;;;5025864;28;20030;-45
2023/05/26 06:10:13;;;;;;;22.75;5.35;;;11.20;73.80;;;;;;5033563;28;20459;-45
2023/05/26 06:12:39;;;;;;;21.15;5.70;;;11.40;73.90;;;;;;5016050;28;20063;-46
2023/05/26 06:15:07;;;;;;;15.07;5.30;;;11.70;72.90;;;;;;5033224;28;20057;-47
2023/05/26 06:17:32;;;;;;;17.17;4.28;;;11.90;72.70;;;;;;5054231;28;20481;-45
2023/05/26 06:20:00;;;;;;;21.48;6.75;;;12.10;72.80;;;;;;5048953;28;20041;-47
2023/05/26 06:22:27;;;;;;;17.80;4.88;;;12.10;71.10;;;;;;5034536;28;20026;-45
2023/05/26 06:24:54;;;;;;;20.25;5.53;;;12.20;70.90;;;;;;5043058;28;20025;-46
2023/05/26 06:27:21;;;;;;;16.80;5.20;;;12.20;70.50;;;;;;5052608;28;20024;-47
2023/05/26 06:29:48;;;;;;;24.08;5.38;;;12.20;71.60;;;;;;5044886;28;20024;-45
2023/05/26 06:32:15;;;;;;;23.02;4.88;;;12.10;71.10;;;;;;5047586;28;20049;-44
2023/05/26 06:34:41;;;;;;;20.85;5.68;;;11.90;71.60;;;;;;5054444;28;20021;-45
2023/05/26 06:37:08;;;;;;;20.83;6.43;;;11.80;72.80;;;;;;5038204;28;20406;-45
2023/05/26 06:39:35;;;;;;;22.50;5.68;;;11.90;72.70;;;;;;5032451;28;20040;-47
2023/05/26 06:42:05;;;;;;;23.83;6.13;;;12.00;73.10;;;;;;5050561;28;20047;-46
2023/05/26 06:44:33;;;;;;;26.73;5.85;;;12.00;72.80;;;;;;5039524;28;20742;-45
2023/05/26 06:47:00;;;;;;;26.55;5.10;;;11.90;72.20;;;;;;5035648;28;20044;-45
2023/05/26 06:49:27;;;;;;;21.45;6.72;;;12.10;72.30;;;;;;5064802;28;20059;-45
2023/05/26 06:51:54;;;;;;;14.25;4.50;;;12.30;72.60;;;;;;5034637;28;20025;-46
2023/05/26 06:54:23;;;;;;;24.77;6.05;;;12.40;71.80;;;;;;5032342;28;20053;-45
2023/05/26 06:56:51;;;;;;;25.02;5.85;;;12.40;71.30;;;;;;5035777;28;20029;-45
2023/05/26 06:59:21;;;;;;;17.38;5.03;;;12.50;71.60;;;;;;5065360;28;20129;-46
2023/05/26 07:01:47;;;;;;;23.95;4.63;;;12.60;70.80;;;;;;5027860;28;20040;-45
2023/05/26 07:04:14;;;;;;;19.10;5.30;;;12.70;70.90;;;;;;5034246;28;20036;-45
2023/05/26 07:06:43;;;;;;;18.73;5.15;;;12.80;70.20;;;;;;5033819;28;20038;-46
2023/05/26 07:09:10;;;;;;;21.40;5.10;;;12.90;70.00;;;;;;5033956;28;20056;-45
2023/05/26 07:11:38;;;;;;;27.38;8.00;;;12.90;68.80;;;;;;5029811;28;20106;-45
2023/05/26 07:14:05;;;;;;;19.45;5.30;;;12.90;68.20;;;;;;5014606;28;20295;-45
2023/05/26 07:16:31;;;;;;;14.40;4.30;;;12.90;68.50;;;;;;5024073;28;20037;-47
2023/05/26 07:18:57;;;;;;;26.45;4.80;;;12.90;67.70;;;;;;5040244;28;20088;-49
2023/05/26 07:21:25;;;;;;;19.40;4.60;;;13.00;68.10;;;;;;5034241;28;20030;-46
2023/05/26 07:23:55;;;;;;;19.58;4.93;;;13.20;67.60;;;;;;5027973;28;20049;-45
2023/05/26 07:26:22;;;;;;;20.45;5.22;;;13.60;67.60;;;;;;5053632;28;20056;-46
2023/05/26 07:28:50;;;;;;;13.13;4.43;;;14.00;64.80;;;;;;5040129;28;20037;-46
2023/05/26 07:31:23;;;;;;;16.33;4.75;;;14.40;64.20;;;;;;5040427;28;20389;-46
2023/05/26 07:33:50;;;;;;;19.48;5.03;;;14.90;64.10;;;;;;5032681;28;20340;-47
2023/05/26 07:36:17;;;;;;;17.08;4.57;;;15.30;61.10;;;;;;5031049;28;20387;-49
2023/05/26 07:38:44;;;;;;;17.23;5.40;;;15.30;60.90;;;;;;5030806;28;20044;-47
2023/05/26 07:41:10;;;;;;;15.70;4.38;;;15.50;59.00;;;;;;5032039;28;20029;-46
2023/05/26 07:43:36;;;;;;;17.70;4.85;;;15.60;59.00;;;;;;5030178;28;20026;-46
2023/05/26 07:46:03;;;;;;;16.88;4.35;;;15.70;58.50;;;;;;5030253;28;20363;-48
2023/05/26 07:48:33;;;;;;;21.00;5.20;;;15.90;58.60;;;;;;5031425;28;20040;-45
2023/05/26 07:51:00;;;;;;;16.25;3.50;;;16.20;57.80;;;;;;5027043;28;20138;-46
2023/05/26 07:53:27;;;;;;;20.42;5.05;;;16.20;55.50;;;;;;5031127;28;20022;-47
2023/05/26 07:55:53;;;;;;;19.05;4.43;;;15.60;56.00;;;;;;5038766;28;20026;-45
2023/05/26 07:58:20;;;;;;;15.40;4.68;;;15.50;58.20;;;;;;5026110;28;20083;-49
2023/05/26 08:00:47;;;;;;;18.05;4.57;;;15.90;59.20;;;;;;5017971;28;20461;-47
2023/05/26 08:03:13;;;;;;;19.33;4.20;;;16.40;57.00;;;;;;5031990;28;20029;-46
2023/05/26 08:05:42;;;;;;;14.40;4.15;;;16.70;56.20;;;;;;5030708;28;20046;-47
2023/05/26 08:08:08;;;;;;;16.25;5.30;;;16.60;56.10;;;;;;5021961;28;20033;-49
2023/05/26 08:10:36;;;;;;;15.38;5.15;;;16.40;55.80;;;;;;5026142;28;20033;-47
2023/05/26 08:13:02;;;;;;;18.67;4.95;;;15.70;56.90;;;;;;5013661;28;20041;-46
2023/05/26 08:15:29;;;;;;;15.93;4.82;;;15.10;58.70;;;;;;5028931;28;20037;-45
2023/05/26 08:17:59;;;;;;;19.52;5.43;;;14.80;59.80;;;;;;5024578;28;20112;-46
2023/05/26 08:20:25;;;;;;;19.65;5.05;;;14.90;61.00;;;;;;5029946;28;20057;-48
2023/05/26 08:22:52;;;;;;;15.63;4.93;;;15.40;59.90;;;;;;5036921;28;20516;-48
2023/05/26 08:25:20;;;;;;;15.73;4.38;;;16.00;58.40;;;;;;5016360;28;20467;-48
2023/05/26 08:27:48;;;;;;;18.98;4.88;;;16.10;57.10;;;;;;5026454;28;20025;-45
2023/05/26 08:30:14;;;;;;;16.38;4.53;;;16.60;56.00;;;;;;5023181;28;20482;-48
2023/05/26 08:32:41;;;;;;;17.73;5.25;;;16.40;56.60;;;;;;5030438;28;20032;-47
2023/05/26 08:35:07;;;;;;;17.27;5.43;;;16.20;56.40;;;;;;5020473;28;20035;-46
2023/05/26 08:37:34;;;;;;;19.05;4.70;;;16.50;57.40;;;;;;5027887;28;20025;-47
2023/05/26 08:40:04;;;;;;;15.88;4.32;;;16.60;58.20;;;;;;5026118;28;20026;-46
2023/05/26 08:42:36;;;;;;;17.88;5.05;;;16.20;56.00;;;;;;5019082;28;20026;-46
2023/05/26 08:45:06;;;;;;;17.90;5.63;;;15.80;58.20;;;;;;5024433;28;20041;-48
2023/05/26 08:47:34;;;;;;;;;;;16.20;57.70;;;;;;5028730;28;20104;-47
2023/05/26 08:50:05;;;;;;;17.25;4.82;;;16.70;59.90;;;;;;5030437;28;19920;-50
2023/05/26 08:52:32;;;;;;;17.42;5.20;;;17.20;56.20;;;;;;5021278;28;20029;-49
2023/05/26 08:55:00;;;;;;;17.83;4.65;;;17.30;54.80;;;;;;5023306;28;20159;-46
2023/05/26 08:57:31;;;;;;;13.88;4.32;;;17.20;53.50;;;;;;5029228;28;20354;-47
2023/05/26 08:59:59;;;;;;;16.70;4.18;;;17.50;52.70;;;;;;5028420;28;20108;-51
2023/05/26 09:02:26;;;;;;;14.50;4.20;;;17.60;55.10;;;;;;5025707;28;20064;-46
2023/05/26 09:04:52;;;;;;;16.17;4.93;;;17.90;54.70;;;;;;5031767;28;20044;-49
2023/05/26 09:07:19;;;;;;;13.45;3.83;;;18.10;54.20;;;;;;5028755;28;20025;-46
2023/05/26 09:09:46;;;;;;;13.13;4.57;;;18.00;50.00;;;;;;5024756;28;20600;-48
2023/05/26 09:12:13;;;;;;;11.27;3.65;;;18.20;52.70;;;;;;5025908;28;20026;-47
2023/05/26 09:14:42;;;;;;;17.08;4.10;;;17.70;52.50;;;;;;5019158;28;20038;-49
2023/05/26 09:17:13;;;;;;;14.48;4.35;;;17.60;53.10;;;;;;5029743;28;20107;-48
2023/05/26 09:19:41;;;;;;;11.43;4.80;;;17.40;51.40;;;;;;5026797;28;20564;-46
2023/05/26 09:22:11;;;;;;;14.82;4.65;;;16.90;54.30;;;;;;5030982;28;20052;-48
2023/05/26 09:24:48;;;;;;;19.23;4.38;;;16.90;53.10;;;;;;5028593;28;20033;-47
2023/05/26 09:27:22;;;;;;;13.15;4.18;;;16.90;55.00;;;;;;5025138;28;20122;-48
2023/05/26 09:30:00;;;;;;;19.60;5.32;;;16.70;56.50;;;;;;5028977;28;20034;-50
2023/05/26 09:32:28;;;;;;;21.75;5.05;;;15.90;57.30;;;;;;5032886;28;20030;-48
2023/05/26 09:34:59;;;;;;;22.85;5.60;;;15.50;59.90;;;;;;5035017;28;20025;-47
2023/05/26 09:37:30;;;;;;;14.38;5.10;;;15.10;60.50;;;;;;5033900;28;20099;-46
2023/05/26 09:40:11;;;;;;;19.08;5.13;;;14.80;60.80;;;;;;5034346;28;20033;-47
2023/05/26 09:42:45;;;;;;;16.58;4.00;;;14.50;61.70;;;;;;5037942;28;20096;-52
2023/05/26 09:45:11;;;;;;;19.60;4.95;;;14.50;62.80;;;;;;5025578;28;20022;-46
2023/05/26 09:47:38;;;;;;;22.05;6.13;;;14.70;62.40;;;;;;5033129;28;20042;-46
2023/05/26 09:50:05;;;;;;;18.23;4.60;;;14.50;62.30;;;;;;5016066;28;20080;-49
2023/05/26 09:52:34;;;;;;;18.25;4.90;;;14.20;64.10;;;;;;5034263;28;20080;-47
2023/05/26 09:55:00;;;;;;;14.80;4.20;;;14.20;63.30;;;;;;5025955;28;20030;-47
2023/05/26 09:57:28;;;;;;;15.70;4.97;;;14.20;64.00;;;;;;5032803;28;20439;-46
2023/05/26 10:00:00;;;;;;;19.05;5.25;;;14.10;64.70;;;;;;5027024;28;20474;-46
2023/05/26 10:02:31;;;;;;;15.93;5.22;;;14.20;64.60;;;;;;5031658;28;20021;-48
2023/05/26 10:04:58;;;;;;;16.83;4.95;;;14.20;64.80;;;;;;5034307;28;20076;-45
2023/05/26 10:07:27;;;;;;;15.82;4.82;;;14.20;65.20;;;;;;5033443;28;20052;-47
2023/05/26 10:09:59;;;;;;;19.60;5.13;;;14.00;65.50;;;;;;5033796;28;20041;-46
2023/05/26 10:12:32;;;;;;;20.58;5.78;;;13.90;65.20;;;;;;5024515;28;20121;-47
2023/05/26 10:15:02;;;;;;;14.98;4.15;;;14.30;65.00;;;;;;5031942;28;20040;-47
2023/05/26 10:17:30;;;;;;;21.55;5.30;;;15.00;64.20;;;;;;5016442;28;20057;-46
2023/05/26 10:19:59;;;;;;;18.13;5.30;;;16.10;62.50;;;;;;5030842;28;20060;-46
2023/05/26 10:23:02;;;;;;;15.70;5.25;;;16.50;58.90;;;;;;5014882;28;20091;-47
2023/05/26 10:25:34;;;;;;;22.20;6.60;;;16.80;56.40;;;;;;5038099;28;20026;-46
2023/05/26 10:28:37;;;;;;;15.63;5.22;;;16.70;56.80;;;;;;5034476;28;20022;-46
2023/05/26 10:31:04;;;;;;;14.27;4.22;;;16.80;55.00;;;;;;5018262;28;20124;-46
2023/05/26 10:33:39;;;;;;;21.00;5.22;;;17.10;57.80;;;;;;5020299;28;20026;-46
2023/05/26 10:36:14;;;;;;;20.25;5.78;;;17.40;55.60;;;;;;5025156;28;20362;-46
2023/05/26 10:38:46;;;;;;;14.73;5.40;;;17.60;57.30;;;;;;5031072;28;20025;-46
2023/05/26 10:41:31;;;;;;;25.33;5.53;;;17.40;54.80;;;;;;5032420;28;20076;-46
2023/05/26 10:43:59;;;;;;;16.08;5.75;;;16.90;55.80;;;;;;5015977;28;20117;-46
2023/05/26 10:46:48;;;;;;;16.48;4.90;;;16.90;57.60;;;;;;5032481;28;20039;-46
2023/05/26 10:49:22;;;;;;;16.25;5.00;;;17.20;56.10;;;;;;5036190;28;20124;-46
2023/05/26 10:51:54;;;;;;;26.30;6.30;;;17.10;54.80;;;;;;5028987;28;20017;-46
2023/05/26 10:54:27;;;;;;;22.05;5.80;;;16.80;56.70;;;;;;5033555;28;20044;-47
2023/05/26 10:56:54;;;;;;;18.45;5.13;;;16.50;58.30;;;;;;5030764;28;20103;-46
2023/05/26 10:59:32;;;;;;;22.60;4.63;;;16.20;58.90;;;;;;5029449;28;20475;-47
2023/05/26 11:02:07;;;;;;;20.25;5.00;;;16.30;59.10;;;;;;5027785;28;20044;-46
2023/05/26 11:04:47;;;;;;;23.50;5.50;;;16.10;59.70;;;;;;5030916;28;20116;-48
2023/05/26 11:07:27;;;;;;;20.90;5.35;;;15.90;59.80;;;;;;5030228;28;20029;-46
2023/05/26 11:10:08;;;;;;;18.15;4.78;;;15.70;61.20;;;;;;5029963;28;20029;-46
2023/05/26 11:12:57;;;;;;;17.23;4.75;;;15.70;62.00;;;;;;5033571;28;20044;-47
2023/05/26 11:15:33;;;;;;;20.20;5.93;;;15.90;61.50;;;;;;5024709;28;20034;-46
2023/05/26 11:18:07;;;;;;;22.10;6.93;;;15.80;62.40;;;;;;5019606;28;20045;-46
2023/05/26 11:20:35;;;;;;;23.20;5.90;;;15.50;62.50;;;;;;5032607;28;20091;-49
2023/05/26 11:23:03;;;;;;;24.40;6.30;;;15.30;63.10;;;;;;5025643;28;20043;-49
2023/05/26 11:25:30;;;;;;;18.42;4.97;;;15.00;63.70;;;;;;5025866;28;20036;-50
2023/05/26 11:27:56;;;;;;;22.13;6.88;;;14.90;64.00;;;;;;5028110;28;20482;-47
2023/05/26 11:30:34;;;;;;;22.23;6.07;;;14.90;64.40;;;;;;5032458;28;20014;-47
2023/05/26 11:33:12;;;;;;;21.75;5.65;;;15.20;65.50;;;;;;5039876;28;20032;-48
2023/05/26 11:35:39;;;;;;;23.48;6.88;;;15.40;65.60;;;;;;5041078;28;20025;-47
2023/05/26 11:38:05;;;;;;;15.65;5.05;;;15.60;65.40;;;;;;5031745;28;20124;-47
2023/05/26 11:40:32;;;;;;;21.55;5.80;;;15.90;61.90;;;;;;5022844;28;20036;-47
2023/05/26 11:42:58;;;;;;;17.08;5.30;;;16.00;62.00;;;;;;5027575;28;20068;-47
2023/05/26 11:45:25;;;;;;;23.25;6.60;;;16.00;61.60;;;;;;5035743;28;20451;-48
2023/05/26 11:47:52;;;;;;;23.25;6.47;;;16.40;60.80;;;;;;5026805;28;20038;-47
2023/05/26 11:50:19;;;;;;;22.85;5.88;;;16.70;61.30;;;;;;5023204;28;20391;-49
2023/05/26 11:52:48;;;;;;;19.48;5.43;;;16.70;60.60;;;;;;5038837;28;20025;-49
2023/05/26 11:55:22;;;;;;;22.63;6.43;;;16.60;59.90;;;;;;5029132;28;20065;-46
2023/05/26 11:57:51;;;;;;;22.30;6.47;;;16.80;60.60;;;;;;5030803;28;20025;-46
2023/05/26 12:00:19;;;;;;;26.57;7.90;;;16.80;61.40;;;;;;5027750;28;20037;-46
2023/05/26 12:02:48;;;;;;;19.70;5.03;;;16.90;60.70;;;;;;5029880;28;20040;-46
2023/05/26 12:05:17;;;;;;;22.05;5.75;;;16.50;60.50;;;;;;5031992;28;20383;-47
2023/05/26 12:07:44;;;;;;;19.40;5.30;;;16.00;62.50;;;;;;5032383;28;20057;-46
2023/05/26 12:10:11;;;;;;;22.63;6.18;;;15.80;63.50;;;;;;5031023;28;20087;-50
2023/05/26 12:12:53;;;;;;;22.85;5.82;;;16.30;63.80;;;;;;5029894;28;20029;-48
2023/05/26 12:15:21;;;;;;;16.02;5.10;;;16.50;61.60;;;;;;5014392;28;20120;-50
2023/05/26 12:17:52;;;;;;;20.75;6.00;;;16.20;61.20;;;;;;5023196;28;20033;-46
2023/05/26 12:20:25;;;;;;;21.63;6.10;;;16.20;61.90;;;;;;5029449;28;20025;-47
2023/05/26 12:23:01;;;;;;;19.88;6.85;;;16.40;60.80;;;;;;5034849;28;20044;-46
2023/05/26 12:25:29;;;;;;;19.88;5.53;;;16.00;62.60;;;;;;5021173;28;20477;-46
2023/05/26 12:27:59;;;;;;;18.65;5.45;;;15.90;61.70;;;;;;5025355;28;20066;-46
2023/05/26 12:30:27;;;;;;;;;;;15.60;61.50;;;;;;5022236;28;20081;-46
2023/05/26 12:32:53;;;;;;;23.58;4.93;;;15.70;63.30;;;;;;5034826;28;19909;-46
2023/05/26 12:35:19;;;;;;;18.48;6.43;;;15.80;61.00;;;;;;5033192;28;20083;-46
2023/05/26 12:37:48;;;;;;;21.23;5.13;;;15.50;61.10;;;;;;5039395;28;20083;-51
2023/05/26 12:40:15;;;;;;;27.75;5.75;;;15.40;62.60;;;;;;5031787;28;20033;-49
2023/05/26 12:42:42;;;;;;;17.42;5.30;;;15.60;62.40;;;;;;5028837;28;20030;-48
2023/05/26 12:45:08;;;;;;;24.17;6.28;;;15.50;62.60;;;;;;5032156;28;20034;-46
2023/05/26 12:47:34;;;;;;;20.85;5.68;;;15.30;62.70;;;;;;5031606;28;20061;-46
2023/05/26 12:50:04;;;;;;;18.33;5.07;;;15.20;63.80;;;;;;5028185;28;20091;-46
2023/05/26 12:52:31;;;;;;;18.00;5.10;;;15.40;63.40;;;;;;5020287;28;20022;-46
2023/05/26 12:54:58;;;;;;;14.65;5.88;;;15.40;61.70;;;;;;5029425;28;20032;-46